DWI45 CYQQ-KJAX
Flight info
| Callsign | DWI45 |
|---|---|
| Flight time | 4h 43m |
| Altitude | 33000 |
| Route | NANOO DCT YVR J52 GEG J136 BIL J151 ONL/N0433F350 J151 STL J45 BNA J73 LGC DCT DUCHY OHDEA2 |
| Aircraft | C17/H-SDE1E2FGHIJ5RTUWXY/LB1D1 |
Departure
| Time | 2026-05-06 18:59 |
|---|---|
| Airport | Comox Valley International Airport / CFB Comox (CYQQ) |
Arrival
| Time | 2026-05-06 23:43 |
|---|---|
| Airport | Jacksonville International Airport (KJAX) |
| Time | Latitude | Longitude | Altitude | Speed | Heading |
|---|---|---|---|---|---|
| 2026-05-06 18:36 | 49.71111 | -124.90287 | 84 ft | 0 kts | 289° |
| 2026-05-06 18:49 | 49.71109 | -124.90280 | 84 ft | 3 kts | 289° |
| 2026-05-06 18:49 | 49.71101 | -124.90243 | 67 ft | 6 kts | 289° |
| 2026-05-06 18:49 | 49.71097 | -124.90208 | 67 ft | 8 kts | 243° |
| 2026-05-06 18:50 | 49.71115 | -124.90183 | 84 ft | 8 kts | 205° |
| 2026-05-06 18:50 | 49.71121 | -124.90178 | 84 ft | 17 kts | 204° |
| 2026-05-06 18:53 | 49.71117 | -124.90181 | 79 ft | 3 kts | 204° |
| 2026-05-06 18:54 | 49.71078 | -124.90208 | 69 ft | 9 kts | 202° |
| 2026-05-06 18:54 | 49.71009 | -124.90250 | 68 ft | 10 kts | 201° |
| 2026-05-06 18:54 | 49.70953 | -124.90261 | 72 ft | 5 kts | 156° |
| 2026-05-06 18:54 | 49.70934 | -124.90232 | 70 ft | 4 kts | 119° |
| 2026-05-06 18:55 | 49.70927 | -124.90184 | 68 ft | 5 kts | 87° |
| 2026-05-06 18:55 | 49.70944 | -124.90092 | 66 ft | 13 kts | 71° |
| 2026-05-06 18:55 | 49.71000 | -124.89936 | 66 ft | 19 kts | 40° |
| 2026-05-06 18:55 | 49.71127 | -124.89845 | 84 ft | 22 kts | 22° |
| 2026-05-06 18:56 | 49.71273 | -124.89754 | 88 ft | 24 kts | 22° |
| 2026-05-06 18:56 | 49.71430 | -124.89659 | 91 ft | 25 kts | 21° |
| 2026-05-06 18:56 | 49.71574 | -124.89565 | 92 ft | 18 kts | 24° |
| 2026-05-06 18:56 | 49.71668 | -124.89553 | 92 ft | 13 kts | 338° |
| 2026-05-06 18:57 | 49.71749 | -124.89641 | 92 ft | 17 kts | 317° |
| 2026-05-06 18:57 | 49.71846 | -124.89784 | 89 ft | 21 kts | 316° |
| 2026-05-06 18:57 | 49.71944 | -124.89934 | 91 ft | 18 kts | 315° |
| 2026-05-06 18:57 | 49.72016 | -124.90047 | 93 ft | 8 kts | 306° |
| 2026-05-06 18:58 | 49.72024 | -124.90108 | 94 ft | 7 kts | 284° |
| 2026-05-06 18:58 | 49.72038 | -124.90137 | 95 ft | 2 kts | 353° |
| 2026-05-06 18:58 | 49.72048 | -124.90126 | 91 ft | 2 kts | 49° |
| 2026-05-06 18:58 | 49.72046 | -124.90104 | 93 ft | 4 kts | 107° |
| 2026-05-06 18:59 | 49.72017 | -124.90047 | 93 ft | 14 kts | 135° |
| 2026-05-06 18:59 | 49.71781 | -124.89680 | 92 ft | 97 kts | 134° |
| 2026-05-06 18:59 | 49.71072 | -124.88592 | 280 ft | 167 kts | 135° |
| 2026-05-06 18:59 | 49.70309 | -124.87447 | 1897 ft | 146 kts | 136° |
| 2026-05-06 19:00 | 49.69507 | -124.86243 | 2973 ft | 175 kts | 136° |
| 2026-05-06 19:00 | 49.68567 | -124.84828 | 3974 ft | 205 kts | 136° |
| 2026-05-06 19:00 | 49.67451 | -124.83153 | 4994 ft | 241 kts | 136° |
| 2026-05-06 19:00 | 49.66173 | -124.81238 | 6023 ft | 266 kts | 137° |
| 2026-05-06 19:01 | 49.64833 | -124.79232 | 7035 ft | 275 kts | 137° |
| 2026-05-06 19:01 | 49.63425 | -124.77127 | 8009 ft | 285 kts | 137° |
| 2026-05-06 19:01 | 49.61990 | -124.74982 | 9004 ft | 293 kts | 138° |
| 2026-05-06 19:01 | 49.60503 | -124.72762 | 10042 ft | 300 kts | 139° |
| 2026-05-06 19:02 | 49.58992 | -124.70510 | 10992 ft | 305 kts | 139° |
| 2026-05-06 19:02 | 49.57435 | -124.68195 | 11963 ft | 318 kts | 140° |
| 2026-05-06 19:02 | 49.55799 | -124.65776 | 12991 ft | 334 kts | 140° |
| 2026-05-06 19:02 | 49.54085 | -124.63255 | 14021 ft | 349 kts | 140° |
| 2026-05-06 19:03 | 49.52247 | -124.60577 | 14890 ft | 376 kts | 141° |
| 2026-05-06 19:03 | 49.50329 | -124.57797 | 15842 ft | 384 kts | 141° |
| 2026-05-06 19:03 | 49.48341 | -124.54930 | 16846 ft | 398 kts | 141° |
| 2026-05-06 19:03 | 49.46311 | -124.52010 | 17888 ft | 402 kts | 141° |
| 2026-05-06 19:04 | 49.44246 | -124.49047 | 18876 ft | 408 kts | 141° |
| 2026-05-06 19:04 | 49.42160 | -124.46056 | 19811 ft | 414 kts | 141° |
| 2026-05-06 19:04 | 49.40020 | -124.43000 | 20765 ft | 425 kts | 141° |
| 2026-05-06 19:04 | 49.37845 | -124.39900 | 21768 ft | 428 kts | 141° |
| 2026-05-06 19:05 | 49.35638 | -124.36760 | 22812 ft | 438 kts | 141° |
| 2026-05-06 19:05 | 49.33378 | -124.33554 | 23850 ft | 447 kts | 141° |
| 2026-05-06 19:05 | 49.31081 | -124.30304 | 24767 ft | 453 kts | 141° |
| 2026-05-06 19:05 | 49.28732 | -124.26988 | 25701 ft | 465 kts | 141° |
| 2026-05-06 19:06 | 49.26364 | -124.23656 | 26659 ft | 472 kts | 141° |
| 2026-05-06 19:06 | 49.23927 | -124.20233 | 27646 ft | 481 kts | 141° |
| 2026-05-06 19:06 | 49.21426 | -124.16732 | 28683 ft | 493 kts | 141° |
| 2026-05-06 19:06 | 49.18872 | -124.13166 | 29778 ft | 501 kts | 141° |
| 2026-05-06 19:07 | 49.16278 | -124.09550 | 30789 ft | 510 kts | 141° |
| 2026-05-06 19:07 | 49.13627 | -124.05866 | 31760 ft | 520 kts | 141° |
| 2026-05-06 19:07 | 49.10937 | -124.02130 | 32752 ft | 525 kts | 141° |
| 2026-05-06 19:07 | 49.08217 | -123.98355 | 33817 ft | 532 kts | 141° |
| 2026-05-06 19:08 | 49.05570 | -123.94675 | 34769 ft | 492 kts | 140° |
| 2026-05-06 19:08 | 49.03180 | -123.91314 | 35626 ft | 442 kts | 140° |
| 2026-05-06 19:08 | 49.01000 | -123.88225 | 35868 ft | 424 kts | 141° |
| 2026-05-06 19:08 | 48.98807 | -123.85154 | 35480 ft | 435 kts | 141° |
| 2026-05-06 19:09 | 48.96571 | -123.82009 | 35115 ft | 436 kts | 140° |
| 2026-05-06 19:09 | 48.94635 | -123.78509 | 34722 ft | 433 kts | 115° |
| 2026-05-06 19:09 | 48.93904 | -123.74186 | 34416 ft | 416 kts | 83° |
| 2026-05-06 19:09 | 48.94480 | -123.69994 | 34127 ft | 405 kts | 66° |
| 2026-05-06 19:10 | 48.95261 | -123.65810 | 33734 ft | 416 kts | 71° |
| 2026-05-06 19:10 | 48.95837 | -123.61384 | 33323 ft | 444 kts | 75° |
| 2026-05-06 19:10 | 48.96430 | -123.56551 | 32999 ft | 486 kts | 75° |
| 2026-05-06 19:10 | 48.97081 | -123.51365 | 33285 ft | 513 kts | 75° |
| 2026-05-06 19:11 | 48.97778 | -123.45894 | 32927 ft | 531 kts | 75° |
| 2026-05-06 19:11 | 48.99231 | -123.35068 | 32993 ft | 527 kts | 72° |
| 2026-05-06 19:12 | 49.01471 | -123.24569 | 33057 ft | 514 kts | 63° |
| 2026-05-06 19:12 | 49.04257 | -123.14524 | 32996 ft | 516 kts | 62° |
| 2026-05-06 19:13 | 49.06218 | -123.03876 | 32562 ft | 529 kts | 82° |
| 2026-05-06 19:13 | 49.06341 | -122.98278 | 32105 ft | 523 kts | 86° |
| 2026-05-06 19:13 | 49.06401 | -122.92819 | 32135 ft | 512 kts | 91° |
| 2026-05-06 19:13 | 49.05684 | -122.87444 | 31864 ft | 527 kts | 112° |
| 2026-05-06 19:14 | 49.03840 | -122.82810 | 32193 ft | 508 kts | 135° |
| 2026-05-06 19:14 | 49.01277 | -122.79150 | 32929 ft | 511 kts | 144° |
| 2026-05-06 19:14 | 48.98468 | -122.75572 | 32923 ft | 536 kts | 143° |
| 2026-05-06 19:14 | 48.95666 | -122.71934 | 33417 ft | 520 kts | 143° |
| 2026-05-06 19:15 | 48.92968 | -122.68267 | 34239 ft | 525 kts | 139° |
| 2026-05-06 19:15 | 48.90609 | -122.63871 | 34621 ft | 550 kts | 124° |
| 2026-05-06 19:15 | 48.88984 | -122.58625 | 33957 ft | 546 kts | 107° |
| 2026-05-06 19:15 | 48.88315 | -122.52996 | 32506 ft | 542 kts | 90° |
| 2026-05-06 19:16 | 48.88526 | -122.47270 | 30791 ft | 546 kts | 82° |
| 2026-05-06 19:16 | 48.88736 | -122.41762 | 31491 ft | 495 kts | 87° |
| 2026-05-06 19:16 | 48.88489 | -122.36639 | 32404 ft | 488 kts | 98° |
| 2026-05-06 19:16 | 48.87552 | -122.31614 | 33058 ft | 506 kts | 112° |
| 2026-05-06 19:17 | 48.86082 | -122.26672 | 33603 ft | 518 kts | 117° |
| 2026-05-06 19:17 | 48.84518 | -122.21659 | 33787 ft | 536 kts | 114° |
| 2026-05-06 19:17 | 48.83120 | -122.16294 | 33801 ft | 552 kts | 110° |
| 2026-05-06 19:17 | 48.81916 | -122.10930 | 33802 ft | 524 kts | 108° |
| 2026-05-06 19:18 | 48.80717 | -122.05743 | 33776 ft | 521 kts | 111° |
| 2026-05-06 19:18 | 48.77913 | -121.95415 | 33787 ft | 533 kts | 112° |
| 2026-05-06 19:19 | 48.75334 | -121.84937 | 33907 ft | 532 kts | 111° |
| 2026-05-06 19:19 | 48.72581 | -121.74480 | 34005 ft | 535 kts | 112° |
| 2026-05-06 19:20 | 48.69940 | -121.64153 | 33989 ft | 521 kts | 111° |
| 2026-05-06 19:20 | 48.67257 | -121.53869 | 33914 ft | 529 kts | 112° |
| 2026-05-06 19:20 | 48.65904 | -121.48718 | 33780 ft | 524 kts | 111° |
| 2026-05-06 19:21 | 48.64578 | -121.43604 | 33635 ft | 521 kts | 111° |
| 2026-05-06 19:21 | 48.63255 | -121.38521 | 33444 ft | 519 kts | 112° |
| 2026-05-06 19:21 | 48.61921 | -121.33452 | 33299 ft | 519 kts | 112° |
| 2026-05-06 19:21 | 48.60587 | -121.28401 | 33163 ft | 518 kts | 112° |
| 2026-05-06 19:22 | 48.59262 | -121.23370 | 33117 ft | 512 kts | 112° |
| 2026-05-06 19:22 | 48.56629 | -121.13386 | 33126 ft | 516 kts | 112° |
| 2026-05-06 19:23 | 48.53954 | -121.03345 | 33105 ft | 513 kts | 112° |
| 2026-05-06 19:23 | 48.51269 | -120.93234 | 33063 ft | 518 kts | 112° |
| 2026-05-06 19:24 | 48.48566 | -120.83185 | 33052 ft | 520 kts | 112° |
| 2026-05-06 19:24 | 48.45865 | -120.73120 | 33025 ft | 519 kts | 112° |
| 2026-05-06 19:25 | 48.43141 | -120.63020 | 33015 ft | 519 kts | 112° |
| 2026-05-06 19:25 | 48.40430 | -120.53051 | 33010 ft | 519 kts | 112° |
| 2026-05-06 19:26 | 48.37696 | -120.42983 | 32962 ft | 518 kts | 112° |
| 2026-05-06 19:26 | 48.34934 | -120.32929 | 32969 ft | 526 kts | 112° |
| 2026-05-06 19:27 | 48.32160 | -120.22794 | 32937 ft | 523 kts | 112° |
| 2026-05-06 19:27 | 48.29364 | -120.12685 | 32917 ft | 525 kts | 112° |
| 2026-05-06 19:28 | 48.26561 | -120.02552 | 32915 ft | 524 kts | 112° |
| 2026-05-06 19:28 | 48.23765 | -119.92517 | 32910 ft | 521 kts | 112° |
| 2026-05-06 19:29 | 48.20966 | -119.82512 | 32908 ft | 519 kts | 112° |
| 2026-05-06 19:29 | 48.18164 | -119.72525 | 32910 ft | 521 kts | 112° |
| 2026-05-06 19:30 | 48.15345 | -119.62534 | 32913 ft | 520 kts | 112° |
| 2026-05-06 19:30 | 48.12526 | -119.52571 | 32908 ft | 520 kts | 112° |
| 2026-05-06 19:31 | 48.09708 | -119.42664 | 32927 ft | 516 kts | 112° |
| 2026-05-06 19:31 | 48.05465 | -119.27813 | 32935 ft | 519 kts | 112° |
| 2026-05-06 19:32 | 48.02622 | -119.17917 | 32934 ft | 517 kts | 112° |
| 2026-05-06 19:32 | 47.99772 | -119.08037 | 32932 ft | 519 kts | 112° |
| 2026-05-06 19:33 | 47.96915 | -118.98169 | 32932 ft | 517 kts | 112° |
| 2026-05-06 19:33 | 47.94048 | -118.88309 | 32949 ft | 519 kts | 112° |
| 2026-05-06 19:34 | 47.91171 | -118.78456 | 32937 ft | 517 kts | 112° |
| 2026-05-06 19:34 | 47.88310 | -118.68694 | 32947 ft | 518 kts | 112° |
| 2026-05-06 19:35 | 47.85422 | -118.58883 | 32947 ft | 516 kts | 112° |
| 2026-05-06 19:35 | 47.82537 | -118.49118 | 32947 ft | 516 kts | 112° |
| 2026-05-06 19:36 | 47.79635 | -118.39335 | 32951 ft | 516 kts | 112° |
| 2026-05-06 19:36 | 47.76730 | -118.29582 | 32948 ft | 516 kts | 112° |
| 2026-05-06 19:37 | 47.73815 | -118.19836 | 32943 ft | 514 kts | 112° |
| 2026-05-06 19:37 | 47.71401 | -118.11789 | 32949 ft | 513 kts | 112° |
| 2026-05-06 19:38 | 47.68480 | -118.02089 | 32969 ft | 515 kts | 112° |
| 2026-05-06 19:38 | 47.65557 | -117.92425 | 32982 ft | 513 kts | 112° |
| 2026-05-06 19:39 | 47.62623 | -117.82752 | 33008 ft | 514 kts | 112° |
| 2026-05-06 19:39 | 47.59687 | -117.73122 | 33012 ft | 513 kts | 112° |
| 2026-05-06 19:40 | 47.56859 | -117.63403 | 32998 ft | 512 kts | 103° |
| 2026-05-06 19:40 | 47.56273 | -117.58260 | 33037 ft | 505 kts | 91° |
| 2026-05-06 19:40 | 47.56008 | -117.53086 | 33030 ft | 504 kts | 89° |
| 2026-05-06 19:41 | 47.55590 | -117.42706 | 33022 ft | 506 kts | 90° |
| 2026-05-06 19:41 | 47.55049 | -117.32344 | 33032 ft | 504 kts | 90° |
| 2026-05-06 19:42 | 47.54567 | -117.21971 | 32998 ft | 505 kts | 90° |
| 2026-05-06 19:42 | 47.54036 | -117.11631 | 32998 ft | 503 kts | 91° |
| 2026-05-06 19:43 | 47.53521 | -117.01283 | 33014 ft | 504 kts | 90° |
| 2026-05-06 19:43 | 47.52981 | -116.90948 | 33018 ft | 503 kts | 91° |
| 2026-05-06 19:44 | 47.52440 | -116.80614 | 33022 ft | 505 kts | 91° |
| 2026-05-06 19:44 | 47.51888 | -116.70323 | 33024 ft | 504 kts | 91° |
| 2026-05-06 19:45 | 47.51327 | -116.60008 | 33013 ft | 504 kts | 91° |
| 2026-05-06 19:45 | 47.50756 | -116.49657 | 33007 ft | 505 kts | 91° |
| 2026-05-06 19:46 | 47.50173 | -116.39349 | 32994 ft | 501 kts | 91° |
| 2026-05-06 19:46 | 47.49587 | -116.29036 | 32982 ft | 506 kts | 91° |
| 2026-05-06 19:47 | 47.48985 | -116.18689 | 32969 ft | 504 kts | 91° |
| 2026-05-06 19:47 | 47.48376 | -116.08370 | 32967 ft | 503 kts | 91° |
| 2026-05-06 19:48 | 47.47760 | -115.98068 | 32945 ft | 505 kts | 91° |
| 2026-05-06 19:48 | 47.47130 | -115.87726 | 32948 ft | 504 kts | 91° |
| 2026-05-06 19:49 | 47.46495 | -115.77421 | 32925 ft | 504 kts | 91° |
| 2026-05-06 19:49 | 47.45845 | -115.67064 | 32931 ft | 506 kts | 92° |
| 2026-05-06 19:50 | 47.45159 | -115.61969 | 32928 ft | 507 kts | 103° |
| 2026-05-06 19:50 | 47.44123 | -115.56980 | 32928 ft | 510 kts | 105° |
| 2026-05-06 19:50 | 47.41937 | -115.46981 | 32927 ft | 510 kts | 105° |
| 2026-05-06 19:51 | 47.39866 | -115.37065 | 32935 ft | 509 kts | 105° |
| 2026-05-06 19:51 | 47.37690 | -115.27023 | 32947 ft | 511 kts | 105° |
| 2026-05-06 19:52 | 47.35575 | -115.17118 | 32936 ft | 510 kts | 105° |
| 2026-05-06 19:52 | 47.33410 | -115.07140 | 32950 ft | 511 kts | 105° |
| 2026-05-06 19:53 | 47.31252 | -114.97182 | 32949 ft | 509 kts | 105° |
| 2026-05-06 19:53 | 47.29082 | -114.87248 | 32967 ft | 510 kts | 105° |
| 2026-05-06 19:54 | 47.26905 | -114.77319 | 32968 ft | 509 kts | 105° |
| 2026-05-06 19:54 | 47.24716 | -114.67381 | 32984 ft | 512 kts | 105° |
| 2026-05-06 19:55 | 47.22533 | -114.57521 | 32986 ft | 505 kts | 105° |
| 2026-05-06 19:55 | 47.20338 | -114.47650 | 33008 ft | 509 kts | 105° |
| 2026-05-06 19:56 | 47.18137 | -114.37800 | 33006 ft | 506 kts | 105° |
| 2026-05-06 19:56 | 47.15925 | -114.27950 | 33032 ft | 508 kts | 105° |
| 2026-05-06 19:57 | 47.13706 | -114.18110 | 33042 ft | 507 kts | 105° |
| 2026-05-06 19:57 | 47.11485 | -114.08305 | 33050 ft | 505 kts | 105° |
| 2026-05-06 19:58 | 47.09259 | -113.98521 | 33061 ft | 506 kts | 105° |
| 2026-05-06 19:58 | 47.07020 | -113.88731 | 33061 ft | 505 kts | 105° |
| 2026-05-06 19:59 | 47.04775 | -113.78962 | 33055 ft | 506 kts | 105° |
| 2026-05-06 19:59 | 47.02518 | -113.69175 | 33060 ft | 506 kts | 105° |
| 2026-05-06 20:00 | 47.00258 | -113.59430 | 33075 ft | 505 kts | 104° |
| 2026-05-06 20:00 | 46.97984 | -113.49659 | 33049 ft | 506 kts | 105° |
| 2026-05-06 20:01 | 46.95704 | -113.39915 | 33048 ft | 507 kts | 104° |
| 2026-05-06 20:01 | 46.93417 | -113.30179 | 33048 ft | 506 kts | 104° |
| 2026-05-06 20:02 | 46.91117 | -113.20433 | 33042 ft | 507 kts | 105° |
| 2026-05-06 20:02 | 46.88809 | -113.10695 | 33050 ft | 507 kts | 104° |
| 2026-05-06 20:03 | 46.86491 | -113.00962 | 33040 ft | 507 kts | 104° |
| 2026-05-06 20:03 | 46.84166 | -112.91239 | 33046 ft | 506 kts | 104° |
| 2026-05-06 20:04 | 46.81842 | -112.81560 | 33043 ft | 506 kts | 104° |
| 2026-05-06 20:04 | 46.79501 | -112.71856 | 33044 ft | 506 kts | 104° |
| 2026-05-06 20:05 | 46.77152 | -112.62168 | 33038 ft | 505 kts | 104° |
| 2026-05-06 20:05 | 46.74806 | -112.52518 | 33040 ft | 505 kts | 104° |
| 2026-05-06 20:06 | 46.72457 | -112.42922 | 33037 ft | 505 kts | 104° |
| 2026-05-06 20:06 | 46.70105 | -112.33327 | 33030 ft | 504 kts | 104° |
| 2026-05-06 20:07 | 46.67730 | -112.23698 | 33032 ft | 504 kts | 104° |
| 2026-05-06 20:07 | 46.65357 | -112.14108 | 33021 ft | 505 kts | 104° |
| 2026-05-06 20:08 | 46.62966 | -112.04495 | 33023 ft | 504 kts | 104° |
| 2026-05-06 20:08 | 46.60592 | -111.94907 | 33017 ft | 503 kts | 102° |
| 2026-05-06 20:09 | 46.58445 | -111.85225 | 33022 ft | 504 kts | 103° |
| 2026-05-06 20:09 | 46.56259 | -111.75568 | 33035 ft | 502 kts | 101° |
| 2026-05-06 20:10 | 46.54113 | -111.65902 | 33059 ft | 503 kts | 102° |
| 2026-05-06 20:10 | 46.51921 | -111.56281 | 33061 ft | 501 kts | 102° |
| 2026-05-06 20:11 | 46.49754 | -111.46642 | 33076 ft | 503 kts | 102° |
| 2026-05-06 20:11 | 46.47551 | -111.37020 | 33058 ft | 502 kts | 102° |
| 2026-05-06 20:12 | 46.45361 | -111.27399 | 33061 ft | 503 kts | 102° |
| 2026-05-06 20:12 | 46.43145 | -111.17781 | 33061 ft | 501 kts | 102° |
| 2026-05-06 20:13 | 46.40947 | -111.08235 | 33046 ft | 500 kts | 102° |
| 2026-05-06 20:13 | 46.38726 | -110.98653 | 33052 ft | 502 kts | 102° |
| 2026-05-06 20:14 | 46.36502 | -110.89105 | 33079 ft | 500 kts | 102° |
| 2026-05-06 20:14 | 46.34265 | -110.79523 | 33057 ft | 503 kts | 102° |
| 2026-05-06 20:15 | 46.32036 | -110.70043 | 33045 ft | 501 kts | 102° |
| 2026-05-06 20:15 | 46.29771 | -110.60424 | 33060 ft | 502 kts | 102° |
| 2026-05-06 20:16 | 46.27527 | -110.50963 | 33038 ft | 500 kts | 102° |
| 2026-05-06 20:16 | 46.25265 | -110.41437 | 33044 ft | 502 kts | 102° |
| 2026-05-06 20:17 | 46.22986 | -110.31914 | 33020 ft | 501 kts | 102° |
| 2026-05-06 20:17 | 46.20713 | -110.22426 | 33020 ft | 501 kts | 102° |
| 2026-05-06 20:18 | 46.18420 | -110.12921 | 33024 ft | 500 kts | 102° |
| 2026-05-06 20:18 | 46.16134 | -110.03464 | 33017 ft | 501 kts | 102° |
| 2026-05-06 20:19 | 46.13827 | -109.93977 | 32998 ft | 499 kts | 102° |
| 2026-05-06 20:19 | 46.11524 | -109.84531 | 33004 ft | 501 kts | 102° |
| 2026-05-06 20:20 | 46.09204 | -109.75068 | 32991 ft | 500 kts | 102° |
| 2026-05-06 20:20 | 46.06881 | -109.65633 | 32995 ft | 500 kts | 102° |
| 2026-05-06 20:21 | 46.04553 | -109.56201 | 32997 ft | 500 kts | 102° |
| 2026-05-06 20:21 | 46.02216 | -109.46794 | 32998 ft | 500 kts | 102° |
| 2026-05-06 20:22 | 45.99871 | -109.37372 | 32997 ft | 501 kts | 102° |
| 2026-05-06 20:22 | 45.97511 | -109.27951 | 33013 ft | 501 kts | 102° |
| 2026-05-06 20:23 | 45.95149 | -109.18543 | 33012 ft | 500 kts | 102° |
| 2026-05-06 20:23 | 45.92795 | -109.09213 | 33024 ft | 500 kts | 102° |
| 2026-05-06 20:24 | 45.90418 | -108.99831 | 33021 ft | 500 kts | 102° |
| 2026-05-06 20:24 | 45.88031 | -108.90446 | 33031 ft | 501 kts | 102° |
| 2026-05-06 20:25 | 45.85636 | -108.81070 | 33017 ft | 501 kts | 102° |
| 2026-05-06 20:25 | 45.83240 | -108.71726 | 33013 ft | 499 kts | 102° |
| 2026-05-06 20:26 | 45.80830 | -108.62395 | 33011 ft | 499 kts | 104° |
| 2026-05-06 20:26 | 45.78133 | -108.53211 | 33012 ft | 501 kts | 105° |
| 2026-05-06 20:27 | 45.75905 | -108.45532 | 33012 ft | 502 kts | 105° |
| 2026-05-06 20:27 | 45.73177 | -108.36358 | 33017 ft | 501 kts | 105° |
| 2026-05-06 20:28 | 45.70470 | -108.27151 | 33038 ft | 503 kts | 105° |
| 2026-05-06 20:28 | 45.67735 | -108.17987 | 33040 ft | 499 kts | 105° |
| 2026-05-06 20:29 | 45.65016 | -108.08823 | 33049 ft | 502 kts | 105° |
| 2026-05-06 20:29 | 45.62268 | -107.99670 | 33049 ft | 500 kts | 105° |
| 2026-05-06 20:30 | 45.58149 | -107.85942 | 33059 ft | 502 kts | 105° |
| 2026-05-06 20:31 | 45.55388 | -107.76808 | 33060 ft | 499 kts | 105° |
| 2026-05-06 20:31 | 45.52645 | -107.67742 | 33063 ft | 499 kts | 105° |
| 2026-05-06 20:32 | 45.49879 | -107.58649 | 33063 ft | 499 kts | 105° |
| 2026-05-06 20:32 | 45.47110 | -107.49579 | 33067 ft | 499 kts | 105° |
| 2026-05-06 20:33 | 45.44331 | -107.40496 | 33074 ft | 500 kts | 105° |
| 2026-05-06 20:33 | 45.41547 | -107.31447 | 33092 ft | 499 kts | 105° |
| 2026-05-06 20:34 | 45.38748 | -107.22355 | 33076 ft | 502 kts | 106° |
| 2026-05-06 20:34 | 45.35940 | -107.13304 | 33076 ft | 500 kts | 106° |
| 2026-05-06 20:35 | 45.33128 | -107.04231 | 33084 ft | 501 kts | 106° |
| 2026-05-06 20:35 | 45.30298 | -106.95171 | 33085 ft | 502 kts | 106° |
| 2026-05-06 20:36 | 45.27474 | -106.86131 | 33072 ft | 499 kts | 106° |
| 2026-05-06 20:36 | 45.24661 | -106.77171 | 33078 ft | 502 kts | 106° |
| 2026-05-06 20:37 | 45.21820 | -106.68157 | 33073 ft | 499 kts | 106° |
| 2026-05-06 20:37 | 45.18974 | -106.59144 | 33083 ft | 502 kts | 106° |
| 2026-05-06 20:38 | 45.16114 | -106.50140 | 33077 ft | 500 kts | 106° |
| 2026-05-06 20:38 | 45.13263 | -106.41181 | 33082 ft | 498 kts | 106° |
| 2026-05-06 20:39 | 45.10404 | -106.32224 | 33083 ft | 500 kts | 106° |
| 2026-05-06 20:39 | 45.07525 | -106.23245 | 33088 ft | 500 kts | 106° |
| 2026-05-06 20:40 | 45.04647 | -106.14297 | 33083 ft | 500 kts | 106° |
| 2026-05-06 20:40 | 45.01755 | -106.05336 | 33092 ft | 501 kts | 106° |
| 2026-05-06 20:41 | 44.98885 | -105.96481 | 33091 ft | 498 kts | 106° |
| 2026-05-06 20:41 | 44.95987 | -105.87547 | 33100 ft | 501 kts | 106° |
| 2026-05-06 20:42 | 44.93078 | -105.78639 | 33085 ft | 499 kts | 106° |
| 2026-05-06 20:42 | 44.90169 | -105.69738 | 33106 ft | 500 kts | 106° |
| 2026-05-06 20:43 | 44.87245 | -105.60840 | 33105 ft | 498 kts | 106° |
| 2026-05-06 20:43 | 44.84334 | -105.51992 | 33093 ft | 499 kts | 106° |
| 2026-05-06 20:44 | 44.81400 | -105.43122 | 33098 ft | 499 kts | 107° |
| 2026-05-06 20:44 | 44.78472 | -105.34285 | 33122 ft | 499 kts | 107° |
| 2026-05-06 20:45 | 44.75526 | -105.25435 | 33115 ft | 498 kts | 107° |
| 2026-05-06 20:45 | 44.72589 | -105.16636 | 33115 ft | 497 kts | 106° |
| 2026-05-06 20:46 | 44.69648 | -105.07852 | 33109 ft | 497 kts | 107° |
| 2026-05-06 20:46 | 44.66694 | -104.99061 | 33111 ft | 498 kts | 107° |
| 2026-05-06 20:47 | 44.63733 | -104.90279 | 33108 ft | 497 kts | 107° |
| 2026-05-06 20:47 | 44.60771 | -104.81525 | 33108 ft | 497 kts | 107° |
| 2026-05-06 20:48 | 44.57821 | -104.72834 | 33102 ft | 495 kts | 107° |
| 2026-05-06 20:48 | 44.54835 | -104.64053 | 33103 ft | 498 kts | 107° |
| 2026-05-06 20:49 | 44.51864 | -104.55368 | 33096 ft | 496 kts | 107° |
| 2026-05-06 20:49 | 44.48884 | -104.46660 | 33094 ft | 497 kts | 107° |
| 2026-05-06 20:50 | 44.45881 | -104.37937 | 33106 ft | 497 kts | 107° |
| 2026-05-06 20:50 | 44.42896 | -104.29279 | 33089 ft | 493 kts | 106° |
| 2026-05-06 20:51 | 44.39899 | -104.20605 | 33086 ft | 496 kts | 107° |
| 2026-05-06 20:51 | 44.36891 | -104.11957 | 33081 ft | 494 kts | 107° |
| 2026-05-06 20:52 | 44.33883 | -104.03306 | 33073 ft | 496 kts | 107° |
| 2026-05-06 20:52 | 44.30862 | -103.94673 | 33070 ft | 493 kts | 107° |
| 2026-05-06 20:53 | 44.27850 | -103.86061 | 33082 ft | 494 kts | 106° |
| 2026-05-06 20:53 | 44.24826 | -103.77472 | 33070 ft | 494 kts | 106° |
| 2026-05-06 20:54 | 44.21796 | -103.68868 | 33067 ft | 494 kts | 106° |
| 2026-05-06 20:54 | 44.18758 | -103.60297 | 33048 ft | 493 kts | 107° |
| 2026-05-06 20:55 | 44.15720 | -103.51728 | 33049 ft | 492 kts | 107° |
| 2026-05-06 20:55 | 44.12683 | -103.43204 | 33043 ft | 490 kts | 106° |
| 2026-05-06 20:56 | 44.09652 | -103.34709 | 33046 ft | 491 kts | 106° |
| 2026-05-06 20:56 | 44.06604 | -103.26203 | 33048 ft | 491 kts | 107° |
| 2026-05-06 20:57 | 44.03558 | -103.17727 | 33066 ft | 490 kts | 106° |
| 2026-05-06 20:57 | 44.00497 | -103.09228 | 33058 ft | 493 kts | 107° |
| 2026-05-06 20:58 | 43.97447 | -103.00749 | 33060 ft | 487 kts | 104° |
| 2026-05-06 20:58 | 43.94698 | -102.92143 | 33071 ft | 490 kts | 104° |
| 2026-05-06 20:59 | 43.91919 | -102.83623 | 33073 ft | 486 kts | 104° |
| 2026-05-06 20:59 | 43.89165 | -102.75031 | 33106 ft | 490 kts | 105° |
| 2026-05-06 21:00 | 43.86357 | -102.66458 | 33084 ft | 486 kts | 105° |
| 2026-05-06 21:00 | 43.83577 | -102.57870 | 33112 ft | 489 kts | 105° |
| 2026-05-06 21:01 | 43.80775 | -102.49330 | 33100 ft | 488 kts | 105° |
| 2026-05-06 21:01 | 43.77971 | -102.40756 | 33128 ft | 489 kts | 105° |
| 2026-05-06 21:02 | 43.75150 | -102.32200 | 33088 ft | 488 kts | 106° |
| 2026-05-06 21:02 | 43.72336 | -102.23658 | 33094 ft | 488 kts | 106° |
| 2026-05-06 21:03 | 43.69512 | -102.15138 | 33089 ft | 488 kts | 106° |
| 2026-05-06 21:03 | 43.66680 | -102.06600 | 33091 ft | 489 kts | 106° |
| 2026-05-06 21:04 | 43.63836 | -101.98071 | 33096 ft | 489 kts | 107° |
| 2026-05-06 21:04 | 43.60986 | -101.89539 | 33097 ft | 490 kts | 107° |
| 2026-05-06 21:05 | 43.58129 | -101.81025 | 33094 ft | 487 kts | 108° |
| 2026-05-06 21:05 | 43.55299 | -101.72599 | 33095 ft | 490 kts | 108° |
| 2026-05-06 21:06 | 43.52428 | -101.64097 | 33098 ft | 489 kts | 109° |
| 2026-05-06 21:06 | 43.49549 | -101.55590 | 33100 ft | 490 kts | 109° |
| 2026-05-06 21:07 | 43.46660 | -101.47083 | 33105 ft | 490 kts | 109° |
| 2026-05-06 21:07 | 43.43775 | -101.38606 | 33096 ft | 490 kts | 109° |
| 2026-05-06 21:08 | 43.40874 | -101.30120 | 33119 ft | 490 kts | 110° |
| 2026-05-06 21:08 | 43.37968 | -101.21638 | 33093 ft | 491 kts | 110° |
| 2026-05-06 21:09 | 43.35051 | -101.13157 | 33084 ft | 491 kts | 110° |
| 2026-05-06 21:09 | 43.32128 | -101.04678 | 33071 ft | 491 kts | 110° |
| 2026-05-06 21:10 | 43.29197 | -100.96203 | 33049 ft | 491 kts | 111° |
| 2026-05-06 21:10 | 43.26266 | -100.87761 | 33046 ft | 490 kts | 111° |
| 2026-05-06 21:11 | 43.23326 | -100.79310 | 33046 ft | 491 kts | 111° |
| 2026-05-06 21:11 | 43.20380 | -100.70879 | 33053 ft | 489 kts | 111° |
| 2026-05-06 21:12 | 43.17431 | -100.62448 | 33068 ft | 492 kts | 111° |
| 2026-05-06 21:12 | 43.14467 | -100.54023 | 33077 ft | 491 kts | 112° |
| 2026-05-06 21:13 | 43.11495 | -100.45578 | 33106 ft | 493 kts | 113° |
| 2026-05-06 21:13 | 43.08517 | -100.37157 | 33111 ft | 491 kts | 113° |
| 2026-05-06 21:14 | 43.05533 | -100.28736 | 33115 ft | 493 kts | 113° |
| 2026-05-06 21:14 | 43.02558 | -100.20375 | 33127 ft | 491 kts | 113° |
| 2026-05-06 21:15 | 42.99553 | -100.11949 | 33105 ft | 495 kts | 114° |
| 2026-05-06 21:15 | 42.96536 | -100.03511 | 33100 ft | 494 kts | 115° |
| 2026-05-06 21:16 | 42.93510 | -99.95081 | 33098 ft | 496 kts | 115° |
| 2026-05-06 21:16 | 42.90477 | -99.86652 | 33099 ft | 494 kts | 115° |
| 2026-05-06 21:17 | 42.87441 | -99.78236 | 33112 ft | 497 kts | 116° |
| 2026-05-06 21:17 | 42.84380 | -99.69793 | 33111 ft | 495 kts | 116° |
| 2026-05-06 21:18 | 42.81327 | -99.61381 | 33096 ft | 497 kts | 116° |
| 2026-05-06 21:18 | 42.78772 | -99.54371 | 33097 ft | 497 kts | 116° |
| 2026-05-06 21:19 | 42.75704 | -99.45966 | 33118 ft | 496 kts | 117° |
| 2026-05-06 21:19 | 42.72613 | -99.37530 | 33115 ft | 499 kts | 117° |
| 2026-05-06 21:20 | 42.69524 | -99.29120 | 33104 ft | 496 kts | 117° |
| 2026-05-06 21:20 | 42.66423 | -99.20706 | 33108 ft | 499 kts | 117° |
| 2026-05-06 21:21 | 42.63320 | -99.12308 | 33095 ft | 496 kts | 118° |
| 2026-05-06 21:21 | 42.60206 | -99.03916 | 33114 ft | 500 kts | 118° |
| 2026-05-06 21:22 | 42.57081 | -98.95503 | 33107 ft | 498 kts | 118° |
| 2026-05-06 21:22 | 42.53953 | -98.87118 | 33106 ft | 499 kts | 118° |
| 2026-05-06 21:23 | 42.50816 | -98.78730 | 33109 ft | 498 kts | 118° |
| 2026-05-06 21:23 | 42.47683 | -98.70376 | 33116 ft | 499 kts | 119° |
| 2026-05-06 21:24 | 42.44265 | -98.62181 | 33109 ft | 499 kts | 121° |
| 2026-05-06 21:24 | 42.40888 | -98.53994 | 33111 ft | 497 kts | 122° |
| 2026-05-06 21:25 | 42.37407 | -98.45882 | 33112 ft | 499 kts | 122° |
| 2026-05-06 21:25 | 42.33983 | -98.37734 | 33119 ft | 497 kts | 122° |
| 2026-05-06 21:26 | 42.30510 | -98.29614 | 33108 ft | 502 kts | 122° |
| 2026-05-06 21:26 | 42.27027 | -98.21416 | 33112 ft | 502 kts | 122° |
| 2026-05-06 21:27 | 42.23537 | -98.13272 | 33116 ft | 502 kts | 123° |
| 2026-05-06 21:27 | 42.20061 | -98.05159 | 33117 ft | 502 kts | 123° |
| 2026-05-06 21:28 | 42.16564 | -97.97028 | 33119 ft | 502 kts | 123° |
| 2026-05-06 21:28 | 42.13041 | -97.88856 | 33112 ft | 505 kts | 123° |
| 2026-05-06 21:29 | 42.09503 | -97.80674 | 33129 ft | 507 kts | 123° |
| 2026-05-06 21:29 | 42.05957 | -97.72493 | 33129 ft | 505 kts | 123° |
| 2026-05-06 21:30 | 42.02409 | -97.64336 | 33129 ft | 506 kts | 123° |
| 2026-05-06 21:30 | 41.98850 | -97.56166 | 33141 ft | 506 kts | 124° |
| 2026-05-06 21:31 | 41.95283 | -97.48011 | 33108 ft | 507 kts | 124° |
| 2026-05-06 21:31 | 41.91701 | -97.39839 | 33138 ft | 509 kts | 124° |
| 2026-05-06 21:32 | 41.88112 | -97.31668 | 33136 ft | 507 kts | 124° |
| 2026-05-06 21:32 | 41.82721 | -97.19449 | 33137 ft | 508 kts | 124° |
| 2026-05-06 21:33 | 41.79120 | -97.11310 | 33135 ft | 507 kts | 124° |
| 2026-05-06 21:33 | 41.75515 | -97.03189 | 33131 ft | 508 kts | 125° |
| 2026-05-06 21:34 | 41.71894 | -96.95050 | 33126 ft | 509 kts | 125° |
| 2026-05-06 21:34 | 41.68276 | -96.86940 | 33124 ft | 507 kts | 125° |
| 2026-05-06 21:35 | 41.64668 | -96.78879 | 33117 ft | 510 kts | 126° |
| 2026-05-06 21:35 | 41.61006 | -96.70709 | 33119 ft | 508 kts | 126° |
| 2026-05-06 21:36 | 41.57391 | -96.62674 | 33118 ft | 509 kts | 126° |
| 2026-05-06 21:36 | 41.53724 | -96.54545 | 33119 ft | 511 kts | 126° |
| 2026-05-06 21:37 | 41.50066 | -96.46450 | 33100 ft | 509 kts | 127° |
| 2026-05-06 21:37 | 41.46368 | -96.38305 | 33101 ft | 515 kts | 127° |
| 2026-05-06 21:38 | 41.42677 | -96.30172 | 33110 ft | 512 kts | 127° |
| 2026-05-06 21:38 | 41.38969 | -96.22052 | 33082 ft | 514 kts | 127° |
| 2026-05-06 21:39 | 41.35252 | -96.13911 | 33103 ft | 515 kts | 128° |
| 2026-05-06 21:39 | 41.31522 | -96.05776 | 33101 ft | 515 kts | 128° |
| 2026-05-06 21:40 | 41.27777 | -95.97628 | 33107 ft | 517 kts | 128° |
| 2026-05-06 21:40 | 41.24033 | -95.89496 | 33105 ft | 515 kts | 128° |
| 2026-05-06 21:41 | 41.20273 | -95.81367 | 33090 ft | 517 kts | 128° |
| 2026-05-06 21:41 | 41.16578 | -95.73186 | 33077 ft | 522 kts | 122° |
| 2026-05-06 21:42 | 41.13767 | -95.64190 | 33106 ft | 532 kts | 117° |
| 2026-05-06 21:42 | 41.10972 | -95.55164 | 33102 ft | 527 kts | 119° |
| 2026-05-06 21:43 | 41.08144 | -95.46177 | 33123 ft | 530 kts | 118° |
| 2026-05-06 21:43 | 41.05344 | -95.37175 | 33100 ft | 527 kts | 119° |
| 2026-05-06 21:44 | 41.02504 | -95.28205 | 33117 ft | 532 kts | 118° |
| 2026-05-06 21:44 | 40.99666 | -95.19159 | 33098 ft | 531 kts | 119° |
| 2026-05-06 21:45 | 40.96797 | -95.10133 | 33104 ft | 533 kts | 119° |
| 2026-05-06 21:45 | 40.93942 | -95.01115 | 33094 ft | 530 kts | 119° |
| 2026-05-06 21:46 | 40.91065 | -94.92108 | 33104 ft | 533 kts | 120° |
| 2026-05-06 21:46 | 40.88186 | -94.83085 | 33109 ft | 532 kts | 120° |
| 2026-05-06 21:47 | 40.85297 | -94.74093 | 33109 ft | 532 kts | 120° |
| 2026-05-06 21:47 | 40.82401 | -94.65084 | 33106 ft | 532 kts | 120° |
| 2026-05-06 21:48 | 40.79506 | -94.56122 | 33087 ft | 530 kts | 121° |
| 2026-05-06 21:48 | 40.76580 | -94.47105 | 33102 ft | 536 kts | 121° |
| 2026-05-06 21:49 | 40.73667 | -94.38113 | 33102 ft | 533 kts | 121° |
| 2026-05-06 21:49 | 40.70724 | -94.29119 | 33108 ft | 535 kts | 121° |
| 2026-05-06 21:50 | 40.67817 | -94.20201 | 33111 ft | 532 kts | 121° |
| 2026-05-06 21:50 | 40.64857 | -94.11212 | 33126 ft | 537 kts | 121° |
| 2026-05-06 21:51 | 40.61905 | -94.02215 | 33116 ft | 533 kts | 121° |
| 2026-05-06 21:51 | 40.58935 | -93.93251 | 33121 ft | 536 kts | 121° |
| 2026-05-06 21:52 | 40.55968 | -93.84275 | 33120 ft | 534 kts | 121° |
| 2026-05-06 21:52 | 40.52977 | -93.75302 | 33108 ft | 541 kts | 122° |
| 2026-05-06 21:53 | 40.49968 | -93.66258 | 33102 ft | 537 kts | 122° |
| 2026-05-06 21:53 | 40.46955 | -93.57270 | 33124 ft | 539 kts | 122° |
| 2026-05-06 21:54 | 40.43938 | -93.48269 | 33110 ft | 537 kts | 122° |
| 2026-05-06 21:54 | 40.40908 | -93.39289 | 33111 ft | 542 kts | 123° |
| 2026-05-06 21:55 | 40.37847 | -93.30212 | 33118 ft | 541 kts | 122° |
| 2026-05-06 21:55 | 40.34791 | -93.21203 | 33124 ft | 543 kts | 123° |
| 2026-05-06 21:56 | 40.31739 | -93.12227 | 33123 ft | 541 kts | 123° |
| 2026-05-06 21:56 | 40.28674 | -93.03233 | 33112 ft | 543 kts | 124° |
| 2026-05-06 21:57 | 40.25546 | -92.94117 | 33123 ft | 549 kts | 123° |
| 2026-05-06 21:57 | 40.22444 | -92.85041 | 33118 ft | 546 kts | 124° |
| 2026-05-06 21:58 | 40.19294 | -92.75946 | 33119 ft | 552 kts | 124° |
| 2026-05-06 21:58 | 40.16156 | -92.66802 | 33084 ft | 549 kts | 125° |
| 2026-05-06 21:59 | 40.12738 | -92.57879 | 33113 ft | 537 kts | 138° |
| 2026-05-06 21:59 | 40.08291 | -92.50256 | 33126 ft | 526 kts | 142° |
| 2026-05-06 22:00 | 40.03814 | -92.42648 | 33139 ft | 529 kts | 141° |
| 2026-05-06 22:00 | 39.99367 | -92.35048 | 33131 ft | 526 kts | 142° |
| 2026-05-06 22:01 | 39.94876 | -92.27470 | 33110 ft | 529 kts | 142° |
| 2026-05-06 22:01 | 39.90399 | -92.19855 | 33113 ft | 530 kts | 143° |
| 2026-05-06 22:02 | 39.85895 | -92.12275 | 33107 ft | 529 kts | 142° |
| 2026-05-06 22:02 | 39.81404 | -92.04693 | 33107 ft | 529 kts | 143° |
| 2026-05-06 22:03 | 39.76897 | -91.97130 | 33104 ft | 528 kts | 143° |
| 2026-05-06 22:03 | 39.72386 | -91.89564 | 33084 ft | 530 kts | 144° |
| 2026-05-06 22:04 | 39.67860 | -91.81998 | 33107 ft | 531 kts | 144° |
| 2026-05-06 22:04 | 39.63333 | -91.74438 | 33104 ft | 530 kts | 144° |
| 2026-05-06 22:05 | 39.58801 | -91.66904 | 33098 ft | 531 kts | 144° |
| 2026-05-06 22:05 | 39.54264 | -91.59358 | 33084 ft | 530 kts | 144° |
| 2026-05-06 22:06 | 39.49743 | -91.51884 | 33063 ft | 531 kts | 144° |
| 2026-05-06 22:06 | 39.45195 | -91.44356 | 33086 ft | 531 kts | 144° |
| 2026-05-06 22:07 | 39.40630 | -91.36839 | 33083 ft | 531 kts | 144° |
| 2026-05-06 22:07 | 39.36814 | -91.30549 | 33082 ft | 530 kts | 144° |
| 2026-05-06 22:08 | 39.32253 | -91.23074 | 33083 ft | 529 kts | 144° |
| 2026-05-06 22:08 | 39.27694 | -91.15604 | 33072 ft | 530 kts | 144° |
| 2026-05-06 22:09 | 39.23127 | -91.08138 | 33084 ft | 529 kts | 144° |
| 2026-05-06 22:09 | 39.18550 | -91.00684 | 33084 ft | 530 kts | 144° |
| 2026-05-06 22:10 | 39.13978 | -90.93241 | 33084 ft | 529 kts | 145° |
| 2026-05-06 22:10 | 39.09437 | -90.85881 | 33073 ft | 528 kts | 144° |
| 2026-05-06 22:11 | 39.04855 | -90.78463 | 33060 ft | 530 kts | 144° |
| 2026-05-06 22:11 | 39.00270 | -90.71055 | 33077 ft | 530 kts | 144° |
| 2026-05-06 22:12 | 38.95671 | -90.63646 | 33054 ft | 529 kts | 144° |
| 2026-05-06 22:12 | 38.91079 | -90.56267 | 33069 ft | 530 kts | 145° |
| 2026-05-06 22:13 | 38.86477 | -90.48881 | 33058 ft | 528 kts | 145° |
| 2026-05-06 22:13 | 38.81711 | -90.41813 | 33070 ft | 525 kts | 147° |
| 2026-05-06 22:14 | 38.76945 | -90.34740 | 33068 ft | 524 kts | 147° |
| 2026-05-06 22:14 | 38.72135 | -90.27682 | 33071 ft | 525 kts | 147° |
| 2026-05-06 22:15 | 38.67353 | -90.20638 | 33067 ft | 525 kts | 147° |
| 2026-05-06 22:15 | 38.62550 | -90.13609 | 33056 ft | 524 kts | 147° |
| 2026-05-06 22:16 | 38.57750 | -90.06586 | 33057 ft | 525 kts | 147° |
| 2026-05-06 22:16 | 38.52946 | -89.99570 | 33042 ft | 524 kts | 147° |
| 2026-05-06 22:17 | 38.48160 | -89.92614 | 33053 ft | 527 kts | 147° |
| 2026-05-06 22:17 | 38.43338 | -89.85590 | 33048 ft | 524 kts | 147° |
| 2026-05-06 22:18 | 38.38514 | -89.78613 | 33049 ft | 526 kts | 147° |
| 2026-05-06 22:18 | 38.33694 | -89.71626 | 33054 ft | 524 kts | 147° |
| 2026-05-06 22:19 | 38.28866 | -89.64669 | 33054 ft | 525 kts | 147° |
| 2026-05-06 22:19 | 38.24035 | -89.57702 | 33055 ft | 524 kts | 147° |
| 2026-05-06 22:20 | 38.19204 | -89.50763 | 33056 ft | 524 kts | 147° |
| 2026-05-06 22:20 | 38.14396 | -89.43861 | 33051 ft | 521 kts | 147° |
| 2026-05-06 22:21 | 38.09570 | -89.36968 | 33051 ft | 522 kts | 147° |
| 2026-05-06 22:21 | 38.04763 | -89.30090 | 33051 ft | 521 kts | 148° |
| 2026-05-06 22:22 | 37.99932 | -89.23222 | 33037 ft | 522 kts | 147° |
| 2026-05-06 22:22 | 37.95105 | -89.16348 | 33016 ft | 523 kts | 148° |
| 2026-05-06 22:23 | 37.90275 | -89.09496 | 33059 ft | 521 kts | 148° |
| 2026-05-06 22:23 | 37.85436 | -89.02654 | 33064 ft | 522 kts | 148° |
| 2026-05-06 22:24 | 37.80603 | -88.95811 | 33063 ft | 520 kts | 148° |
| 2026-05-06 22:24 | 37.75762 | -88.89008 | 33062 ft | 522 kts | 148° |
| 2026-05-06 22:25 | 37.70924 | -88.82187 | 33015 ft | 519 kts | 148° |
| 2026-05-06 22:25 | 37.66085 | -88.75416 | 33051 ft | 520 kts | 147° |
| 2026-05-06 22:26 | 37.61250 | -88.68632 | 33051 ft | 519 kts | 147° |
| 2026-05-06 22:26 | 37.56446 | -88.61926 | 33057 ft | 519 kts | 148° |
| 2026-05-06 22:27 | 37.51594 | -88.55156 | 33061 ft | 521 kts | 148° |
| 2026-05-06 22:27 | 37.46747 | -88.48406 | 33034 ft | 518 kts | 148° |
| 2026-05-06 22:28 | 37.41869 | -88.41644 | 33048 ft | 526 kts | 146° |
| 2026-05-06 22:28 | 37.36998 | -88.34862 | 33036 ft | 520 kts | 147° |
| 2026-05-06 22:29 | 37.32104 | -88.28129 | 33043 ft | 523 kts | 147° |
| 2026-05-06 22:29 | 37.27229 | -88.21365 | 33050 ft | 521 kts | 147° |
| 2026-05-06 22:30 | 37.22296 | -88.14600 | 33039 ft | 522 kts | 147° |
| 2026-05-06 22:30 | 37.17436 | -88.07902 | 33009 ft | 525 kts | 146° |
| 2026-05-06 22:31 | 37.12502 | -88.01137 | 33039 ft | 524 kts | 146° |
| 2026-05-06 22:31 | 37.07587 | -87.94407 | 33034 ft | 524 kts | 147° |
| 2026-05-06 22:32 | 37.02654 | -87.87673 | 33039 ft | 525 kts | 147° |
| 2026-05-06 22:32 | 36.97733 | -87.80955 | 33033 ft | 523 kts | 147° |
| 2026-05-06 22:33 | 36.92805 | -87.74261 | 33022 ft | 524 kts | 147° |
| 2026-05-06 22:33 | 36.87883 | -87.67567 | 33021 ft | 521 kts | 146° |
| 2026-05-06 22:34 | 36.82965 | -87.60915 | 33021 ft | 522 kts | 146° |
| 2026-05-06 22:34 | 36.78039 | -87.54247 | 33022 ft | 522 kts | 146° |
| 2026-05-06 22:35 | 36.73119 | -87.47613 | 33023 ft | 522 kts | 146° |
| 2026-05-06 22:35 | 36.68201 | -87.40983 | 33011 ft | 518 kts | 145° |
| 2026-05-06 22:36 | 36.63296 | -87.34400 | 33014 ft | 520 kts | 146° |
| 2026-05-06 22:36 | 36.58372 | -87.27790 | 33012 ft | 520 kts | 145° |
| 2026-05-06 22:37 | 36.53447 | -87.21202 | 33008 ft | 520 kts | 146° |
| 2026-05-06 22:37 | 36.48522 | -87.14620 | 33018 ft | 519 kts | 146° |
| 2026-05-06 22:38 | 36.43595 | -87.08054 | 33010 ft | 519 kts | 145° |
| 2026-05-06 22:38 | 36.38657 | -87.01486 | 33010 ft | 520 kts | 145° |
| 2026-05-06 22:39 | 36.33727 | -86.94937 | 33006 ft | 518 kts | 146° |
| 2026-05-06 22:39 | 36.28828 | -86.88451 | 33005 ft | 519 kts | 145° |
| 2026-05-06 22:40 | 36.23895 | -86.81920 | 33005 ft | 518 kts | 146° |
| 2026-05-06 22:40 | 36.18951 | -86.75407 | 33041 ft | 522 kts | 146° |
| 2026-05-06 22:41 | 36.13791 | -86.69189 | 33039 ft | 499 kts | 159° |
| 2026-05-06 22:41 | 36.10871 | -86.67071 | 33045 ft | 475 kts | 170° |
| 2026-05-06 22:42 | 36.04805 | -86.64063 | 33053 ft | 471 kts | 173° |
| 2026-05-06 22:42 | 35.98745 | -86.61029 | 33048 ft | 469 kts | 172° |
| 2026-05-06 22:43 | 35.92682 | -86.58033 | 33052 ft | 470 kts | 173° |
| 2026-05-06 22:43 | 35.86622 | -86.55025 | 33019 ft | 470 kts | 173° |
| 2026-05-06 22:44 | 35.80537 | -86.52020 | 33016 ft | 471 kts | 173° |
| 2026-05-06 22:44 | 35.74469 | -86.49018 | 32999 ft | 469 kts | 173° |
| 2026-05-06 22:45 | 35.68389 | -86.46028 | 32975 ft | 470 kts | 172° |
| 2026-05-06 22:45 | 35.62332 | -86.43040 | 32971 ft | 469 kts | 173° |
| 2026-05-06 22:46 | 35.56256 | -86.40061 | 32975 ft | 470 kts | 172° |
| 2026-05-06 22:46 | 35.50200 | -86.37084 | 32974 ft | 469 kts | 173° |
| 2026-05-06 22:47 | 35.44124 | -86.34117 | 32916 ft | 470 kts | 172° |
| 2026-05-06 22:47 | 35.38086 | -86.31154 | 32978 ft | 468 kts | 172° |
| 2026-05-06 22:48 | 35.32024 | -86.28205 | 32980 ft | 468 kts | 172° |
| 2026-05-06 22:48 | 35.25982 | -86.25252 | 32976 ft | 468 kts | 172° |
| 2026-05-06 22:49 | 35.19924 | -86.22311 | 32978 ft | 469 kts | 172° |
| 2026-05-06 22:49 | 35.13920 | -86.19387 | 32963 ft | 467 kts | 172° |
| 2026-05-06 22:50 | 35.07865 | -86.16460 | 32943 ft | 470 kts | 171° |
| 2026-05-06 22:50 | 35.01766 | -86.13496 | 32962 ft | 471 kts | 171° |
| 2026-05-06 22:51 | 34.95686 | -86.10564 | 32947 ft | 470 kts | 172° |
| 2026-05-06 22:51 | 34.89588 | -86.07621 | 32936 ft | 472 kts | 170° |
| 2026-05-06 22:52 | 34.83464 | -86.04670 | 32937 ft | 473 kts | 170° |
| 2026-05-06 22:52 | 34.77366 | -86.01730 | 32925 ft | 471 kts | 170° |
| 2026-05-06 22:53 | 34.71250 | -85.98800 | 32920 ft | 474 kts | 170° |
| 2026-05-06 22:53 | 34.65135 | -85.95859 | 32913 ft | 472 kts | 169° |
| 2026-05-06 22:54 | 34.58963 | -85.92915 | 32914 ft | 477 kts | 169° |
| 2026-05-06 22:54 | 34.52817 | -85.89961 | 32909 ft | 475 kts | 169° |
| 2026-05-06 22:55 | 34.46647 | -85.87029 | 32920 ft | 476 kts | 169° |
| 2026-05-06 22:55 | 34.40500 | -85.84089 | 32871 ft | 475 kts | 169° |
| 2026-05-06 22:56 | 34.35318 | -85.81642 | 32929 ft | 487 kts | 169° |
| 2026-05-06 22:56 | 34.29061 | -85.78642 | 32918 ft | 481 kts | 169° |
| 2026-05-06 22:57 | 34.22797 | -85.75692 | 32924 ft | 484 kts | 169° |
| 2026-05-06 22:57 | 34.16548 | -85.72716 | 32917 ft | 482 kts | 169° |
| 2026-05-06 22:58 | 34.10273 | -85.69764 | 32914 ft | 487 kts | 169° |
| 2026-05-06 22:58 | 34.03977 | -85.66776 | 32911 ft | 484 kts | 169° |
| 2026-05-06 22:59 | 33.97687 | -85.63823 | 32916 ft | 487 kts | 169° |
| 2026-05-06 22:59 | 33.91386 | -85.60849 | 32923 ft | 485 kts | 169° |
| 2026-05-06 23:00 | 33.85094 | -85.57899 | 32933 ft | 487 kts | 169° |
| 2026-05-06 23:00 | 33.78732 | -85.54912 | 32942 ft | 489 kts | 168° |
| 2026-05-06 23:01 | 33.72403 | -85.51946 | 32949 ft | 489 kts | 169° |
| 2026-05-06 23:01 | 33.66298 | -85.48037 | 32954 ft | 514 kts | 149° |
| 2026-05-06 23:01 | 33.63726 | -85.45000 | 32952 ft | 527 kts | 136° |
| 2026-05-06 23:02 | 33.61632 | -85.41333 | 32959 ft | 541 kts | 124° |
| 2026-05-06 23:02 | 33.58828 | -85.32852 | 32966 ft | 545 kts | 115° |
| 2026-05-06 23:03 | 33.55052 | -85.25177 | 32449 ft | 529 kts | 137° |
| 2026-05-06 23:03 | 33.52551 | -85.22046 | 32252 ft | 507 kts | 140° |
| 2026-05-06 23:03 | 33.50181 | -85.19002 | 33152 ft | 497 kts | 140° |
| 2026-05-06 23:03 | 33.47743 | -85.15855 | 32798 ft | 522 kts | 140° |
| 2026-05-06 23:04 | 33.45305 | -85.12712 | 32997 ft | 515 kts | 140° |
| 2026-05-06 23:04 | 33.42865 | -85.09580 | 33014 ft | 526 kts | 140° |
| 2026-05-06 23:04 | 33.40359 | -85.06375 | 32997 ft | 526 kts | 140° |
| 2026-05-06 23:05 | 33.35360 | -84.99987 | 32993 ft | 530 kts | 140° |
| 2026-05-06 23:05 | 33.30333 | -84.93577 | 32994 ft | 526 kts | 140° |
| 2026-05-06 23:06 | 33.25317 | -84.87184 | 32999 ft | 529 kts | 140° |
| 2026-05-06 23:06 | 33.20288 | -84.80782 | 32999 ft | 527 kts | 140° |
| 2026-05-06 23:07 | 33.15268 | -84.74400 | 32996 ft | 528 kts | 140° |
| 2026-05-06 23:07 | 33.10241 | -84.68016 | 32990 ft | 527 kts | 140° |
| 2026-05-06 23:08 | 33.05206 | -84.61632 | 32982 ft | 530 kts | 140° |
| 2026-05-06 23:08 | 33.00172 | -84.55257 | 32975 ft | 525 kts | 139° |
| 2026-05-06 23:09 | 32.95154 | -84.48905 | 32969 ft | 528 kts | 140° |
| 2026-05-06 23:09 | 32.90126 | -84.42551 | 32967 ft | 526 kts | 140° |
| 2026-05-06 23:10 | 32.85100 | -84.36206 | 33007 ft | 528 kts | 140° |
| 2026-05-06 23:10 | 32.80063 | -84.29857 | 32955 ft | 528 kts | 140° |
| 2026-05-06 23:10 | 32.77533 | -84.26673 | 32578 ft | 530 kts | 139° |
| 2026-05-06 23:11 | 32.75014 | -84.23505 | 32157 ft | 522 kts | 139° |
| 2026-05-06 23:11 | 32.72546 | -84.20393 | 31745 ft | 514 kts | 139° |
| 2026-05-06 23:11 | 32.70105 | -84.17313 | 31324 ft | 512 kts | 139° |
| 2026-05-06 23:11 | 32.67665 | -84.14236 | 30904 ft | 510 kts | 139° |
| 2026-05-06 23:12 | 32.65242 | -84.11179 | 30492 ft | 506 kts | 139° |
| 2026-05-06 23:12 | 32.62843 | -84.08149 | 30095 ft | 502 kts | 138° |
| 2026-05-06 23:12 | 32.60463 | -84.05141 | 29628 ft | 499 kts | 138° |
| 2026-05-06 23:12 | 32.58096 | -84.02148 | 29180 ft | 496 kts | 138° |
| 2026-05-06 23:13 | 32.55748 | -83.99175 | 28711 ft | 492 kts | 138° |
| 2026-05-06 23:13 | 32.53419 | -83.96224 | 28264 ft | 488 kts | 138° |
| 2026-05-06 23:13 | 32.51112 | -83.93298 | 27819 ft | 484 kts | 138° |
| 2026-05-06 23:13 | 32.48823 | -83.90393 | 27391 ft | 481 kts | 138° |
| 2026-05-06 23:14 | 32.46551 | -83.87505 | 26928 ft | 477 kts | 138° |
| 2026-05-06 23:14 | 32.44303 | -83.84647 | 26500 ft | 473 kts | 138° |
| 2026-05-06 23:14 | 32.42101 | -83.81841 | 26092 ft | 469 kts | 138° |
| 2026-05-06 23:14 | 32.39858 | -83.78983 | 25669 ft | 467 kts | 138° |
| 2026-05-06 23:15 | 32.37688 | -83.76215 | 25263 ft | 463 kts | 138° |
| 2026-05-06 23:15 | 32.35507 | -83.73432 | 24861 ft | 459 kts | 138° |
| 2026-05-06 23:15 | 32.33316 | -83.70632 | 24438 ft | 456 kts | 138° |
| 2026-05-06 23:15 | 32.31172 | -83.67890 | 24096 ft | 451 kts | 138° |
| 2026-05-06 23:16 | 32.29057 | -83.65180 | 24011 ft | 448 kts | 138° |
| 2026-05-06 23:16 | 32.26933 | -83.62462 | 24001 ft | 452 kts | 138° |
| 2026-05-06 23:16 | 32.24764 | -83.59697 | 23998 ft | 468 kts | 138° |
| 2026-05-06 23:16 | 32.22547 | -83.56881 | 24000 ft | 465 kts | 138° |
| 2026-05-06 23:17 | 32.20390 | -83.54137 | 23999 ft | 462 kts | 138° |
| 2026-05-06 23:17 | 32.18166 | -83.51308 | 23991 ft | 464 kts | 137° |
| 2026-05-06 23:17 | 32.15976 | -83.48521 | 23987 ft | 461 kts | 137° |
| 2026-05-06 23:17 | 32.13795 | -83.45748 | 23988 ft | 462 kts | 137° |
| 2026-05-06 23:18 | 32.11604 | -83.42964 | 24003 ft | 463 kts | 137° |
| 2026-05-06 23:18 | 32.09412 | -83.40180 | 24006 ft | 463 kts | 137° |
| 2026-05-06 23:18 | 32.07224 | -83.37402 | 24006 ft | 462 kts | 137° |
| 2026-05-06 23:18 | 32.05047 | -83.34638 | 24006 ft | 462 kts | 137° |
| 2026-05-06 23:19 | 32.02848 | -83.31847 | 24008 ft | 463 kts | 137° |
| 2026-05-06 23:19 | 32.00657 | -83.29069 | 24012 ft | 462 kts | 137° |
| 2026-05-06 23:19 | 31.98473 | -83.26300 | 24010 ft | 461 kts | 137° |
| 2026-05-06 23:19 | 31.96286 | -83.23528 | 24011 ft | 463 kts | 137° |
| 2026-05-06 23:20 | 31.94093 | -83.20751 | 24008 ft | 463 kts | 137° |
| 2026-05-06 23:20 | 31.91901 | -83.17977 | 24009 ft | 462 kts | 137° |
| 2026-05-06 23:20 | 31.89715 | -83.15207 | 24007 ft | 462 kts | 137° |
| 2026-05-06 23:20 | 31.87523 | -83.12429 | 24025 ft | 464 kts | 137° |
| 2026-05-06 23:21 | 31.85326 | -83.09645 | 24027 ft | 465 kts | 137° |
| 2026-05-06 23:21 | 31.83133 | -83.06863 | 24017 ft | 462 kts | 137° |
| 2026-05-06 23:21 | 31.80946 | -83.04090 | 24017 ft | 463 kts | 137° |
| 2026-05-06 23:21 | 31.78785 | -83.01348 | 24018 ft | 464 kts | 137° |
| 2026-05-06 23:22 | 31.76584 | -82.98568 | 24030 ft | 463 kts | 138° |
| 2026-05-06 23:22 | 31.74354 | -82.95769 | 24029 ft | 463 kts | 136° |
| 2026-05-06 23:22 | 31.72248 | -82.92900 | 24026 ft | 465 kts | 133° |
| 2026-05-06 23:22 | 31.70242 | -82.89902 | 24026 ft | 468 kts | 130° |
| 2026-05-06 23:23 | 31.68324 | -82.86820 | 24027 ft | 468 kts | 130° |
| 2026-05-06 23:23 | 31.66339 | -82.83806 | 24021 ft | 465 kts | 134° |
| 2026-05-06 23:23 | 31.64120 | -82.81078 | 24025 ft | 460 kts | 143° |
| 2026-05-06 23:23 | 31.61689 | -82.78740 | 24038 ft | 457 kts | 148° |
| 2026-05-06 23:24 | 31.59147 | -82.76507 | 24014 ft | 456 kts | 149° |
| 2026-05-06 23:24 | 31.56671 | -82.74184 | 24027 ft | 456 kts | 144° |
| 2026-05-06 23:24 | 31.54305 | -82.71658 | 23797 ft | 463 kts | 142° |
| 2026-05-06 23:24 | 31.51954 | -82.69128 | 23485 ft | 455 kts | 144° |
| 2026-05-06 23:25 | 31.49562 | -82.66752 | 23120 ft | 449 kts | 146° |
| 2026-05-06 23:25 | 31.47153 | -82.64414 | 22729 ft | 450 kts | 145° |
| 2026-05-06 23:25 | 31.44780 | -82.62055 | 22339 ft | 442 kts | 148° |
| 2026-05-06 23:25 | 31.42325 | -82.59928 | 21956 ft | 439 kts | 149° |
| 2026-05-06 23:26 | 31.39864 | -82.57818 | 21593 ft | 438 kts | 149° |
| 2026-05-06 23:26 | 31.37405 | -82.55733 | 21229 ft | 434 kts | 149° |
| 2026-05-06 23:26 | 31.34972 | -82.53676 | 20871 ft | 431 kts | 149° |
| 2026-05-06 23:26 | 31.32547 | -82.51618 | 20502 ft | 430 kts | 149° |
| 2026-05-06 23:27 | 31.30135 | -82.49568 | 20123 ft | 428 kts | 149° |
| 2026-05-06 23:27 | 31.27738 | -82.47535 | 19739 ft | 424 kts | 149° |
| 2026-05-06 23:27 | 31.25355 | -82.45520 | 19351 ft | 421 kts | 148° |
| 2026-05-06 23:27 | 31.22990 | -82.43520 | 18947 ft | 418 kts | 148° |
| 2026-05-06 23:28 | 31.20643 | -82.41533 | 18573 ft | 416 kts | 148° |
| 2026-05-06 23:28 | 31.18304 | -82.39555 | 18175 ft | 414 kts | 148° |
| 2026-05-06 23:28 | 31.15981 | -82.37592 | 17714 ft | 411 kts | 148° |
| 2026-05-06 23:28 | 31.13665 | -82.35637 | 17247 ft | 410 kts | 148° |
| 2026-05-06 23:29 | 31.11367 | -82.33697 | 16779 ft | 405 kts | 148° |
| 2026-05-06 23:29 | 31.09096 | -82.31781 | 16318 ft | 402 kts | 148° |
| 2026-05-06 23:29 | 31.06833 | -82.29876 | 15875 ft | 399 kts | 148° |
| 2026-05-06 23:29 | 31.04558 | -82.28067 | 15432 ft | 392 kts | 152° |
| 2026-05-06 23:30 | 31.02270 | -82.26352 | 14997 ft | 391 kts | 150° |
| 2026-05-06 23:30 | 31.00030 | -82.24564 | 14558 ft | 389 kts | 147° |
| 2026-05-06 23:30 | 30.98060 | -82.22413 | 14102 ft | 390 kts | 130° |
| 2026-05-06 23:30 | 30.96508 | -82.19828 | 13680 ft | 389 kts | 126° |
| 2026-05-06 23:31 | 30.95025 | -82.17203 | 13234 ft | 385 kts | 125° |
| 2026-05-06 23:31 | 30.93564 | -82.14620 | 12755 ft | 379 kts | 126° |
| 2026-05-06 23:31 | 30.92096 | -82.12090 | 12289 ft | 376 kts | 127° |
| 2026-05-06 23:31 | 30.90636 | -82.09581 | 11822 ft | 372 kts | 126° |
| 2026-05-06 23:32 | 30.89208 | -82.07104 | 11348 ft | 361 kts | 126° |
| 2026-05-06 23:32 | 30.87852 | -82.04743 | 10884 ft | 342 kts | 127° |
| 2026-05-06 23:32 | 30.86544 | -82.02483 | 10438 ft | 333 kts | 127° |
| 2026-05-06 23:32 | 30.85257 | -82.00269 | 9995 ft | 328 kts | 127° |
| 2026-05-06 23:33 | 30.84073 | -81.98215 | 9487 ft | 311 kts | 127° |
| 2026-05-06 23:33 | 30.82866 | -81.96143 | 9002 ft | 305 kts | 127° |
| 2026-05-06 23:33 | 30.81705 | -81.94136 | 8507 ft | 293 kts | 127° |
| 2026-05-06 23:33 | 30.80589 | -81.92207 | 8036 ft | 283 kts | 127° |
| 2026-05-06 23:34 | 30.79503 | -81.90339 | 7566 ft | 275 kts | 127° |
| 2026-05-06 23:34 | 30.78449 | -81.88525 | 7143 ft | 266 kts | 126° |
| 2026-05-06 23:34 | 30.77433 | -81.86772 | 6776 ft | 257 kts | 126° |
| 2026-05-06 23:34 | 30.76438 | -81.85062 | 6434 ft | 254 kts | 126° |
| 2026-05-06 23:35 | 30.75456 | -81.83372 | 6181 ft | 254 kts | 127° |
| 2026-05-06 23:35 | 30.74440 | -81.81628 | 5951 ft | 263 kts | 127° |
| 2026-05-06 23:35 | 30.73417 | -81.79867 | 5681 ft | 262 kts | 126° |
| 2026-05-06 23:35 | 30.72403 | -81.78121 | 5432 ft | 260 kts | 126° |
| 2026-05-06 23:36 | 30.71388 | -81.76380 | 5185 ft | 261 kts | 126° |
| 2026-05-06 23:36 | 30.70385 | -81.74659 | 4954 ft | 261 kts | 127° |
| 2026-05-06 23:36 | 30.69369 | -81.72910 | 4717 ft | 261 kts | 126° |
| 2026-05-06 23:36 | 30.68349 | -81.71160 | 4456 ft | 261 kts | 126° |
| 2026-05-06 23:37 | 30.67332 | -81.69421 | 4201 ft | 259 kts | 126° |
| 2026-05-06 23:37 | 30.66325 | -81.67697 | 3982 ft | 257 kts | 126° |
| 2026-05-06 23:37 | 30.65338 | -81.65999 | 3775 ft | 249 kts | 126° |
| 2026-05-06 23:37 | 30.64362 | -81.64320 | 3598 ft | 255 kts | 128° |
| 2026-05-06 23:38 | 30.63358 | -81.62613 | 3433 ft | 256 kts | 128° |
| 2026-05-06 23:38 | 30.62363 | -81.60916 | 3273 ft | 253 kts | 128° |
| 2026-05-06 23:38 | 30.61378 | -81.59230 | 3098 ft | 251 kts | 127° |
| 2026-05-06 23:38 | 30.60417 | -81.57580 | 2925 ft | 239 kts | 127° |
| 2026-05-06 23:39 | 30.59505 | -81.56016 | 2769 ft | 233 kts | 127° |
| 2026-05-06 23:39 | 30.58449 | -81.54640 | 2628 ft | 217 kts | 149° |
| 2026-05-06 23:39 | 30.57127 | -81.54061 | 2521 ft | 208 kts | 173° |
| 2026-05-06 23:39 | 30.55817 | -81.54169 | 2367 ft | 180 kts | 198° |
| 2026-05-06 23:40 | 30.54764 | -81.54793 | 2170 ft | 159 kts | 216° |
| 2026-05-06 23:40 | 30.54055 | -81.55704 | 2077 ft | 146 kts | 232° |
| 2026-05-06 23:40 | 30.53655 | -81.56750 | 1998 ft | 139 kts | 246° |
| 2026-05-06 23:40 | 30.53343 | -81.57818 | 2004 ft | 143 kts | 243° |
| 2026-05-06 23:41 | 30.53000 | -81.58909 | 2001 ft | 146 kts | 245° |
| 2026-05-06 23:41 | 30.52674 | -81.60002 | 1960 ft | 145 kts | 245° |
| 2026-05-06 23:41 | 30.52365 | -81.61205 | 1616 ft | 164 kts | 248° |
| 2026-05-06 23:41 | 30.52011 | -81.62518 | 1157 ft | 173 kts | 245° |
| 2026-05-06 23:42 | 30.51608 | -81.63759 | 771 ft | 160 kts | 243° |
| 2026-05-06 23:42 | 30.51343 | -81.64518 | 571 ft | 149 kts | 246° |
| 2026-05-06 23:42 | 30.50957 | -81.65601 | 445 ft | 149 kts | 243° |
| 2026-05-06 23:42 | 30.50616 | -81.66756 | 204 ft | 148 kts | 248° |
| 2026-05-06 23:43 | 30.50300 | -81.67793 | 46 ft | 122 kts | 245° |
| 2026-05-06 23:43 | 30.49970 | -81.68819 | 33 ft | 76 kts | 255° |
| 2026-05-06 23:43 | 30.49894 | -81.69087 | 37 ft | 27 kts | 246° |
| 2026-05-06 23:43 | 30.49806 | -81.69194 | 37 ft | 10 kts | 187° |
| 2026-05-06 23:44 | 30.49778 | -81.69198 | 37 ft | 0 kts | 186° |
| 2026-05-06 23:45 | 30.49737 | -81.69197 | 38 ft | 6 kts | 169° |
| 2026-05-06 23:45 | 30.49686 | -81.69178 | 38 ft | 9 kts | 155° |
| 2026-05-06 23:45 | 30.49623 | -81.69137 | 39 ft | 13 kts | 149° |
| 2026-05-06 23:46 | 30.49529 | -81.69072 | 36 ft | 20 kts | 150° |
| 2026-05-06 23:46 | 30.49430 | -81.69005 | 36 ft | 14 kts | 152° |
| 2026-05-06 23:46 | 30.49338 | -81.68996 | 36 ft | 15 kts | 188° |
| 2026-05-06 23:46 | 30.49217 | -81.69019 | 36 ft | 20 kts | 190° |
| 2026-05-06 23:47 | 30.49131 | -81.69023 | 36 ft | 0 kts | 165° |
| 2026-05-06 23:47 | 30.49123 | -81.69025 | 36 ft | 2 kts | 200° |